createdAt,value
2023-02-11T00:00:47.437Z,0.20
2023-02-11T00:05:09.645Z,0.10
2023-02-11T00:09:31.958Z,-0.10
2023-02-11T00:13:54.103Z,0.10
2023-02-11T00:18:16.667Z,0.10
2023-02-11T00:22:38.800Z,0.20
2023-02-11T00:27:01.099Z,0.10
2023-02-11T00:31:25.240Z,0.10
2023-02-11T00:35:47.494Z,0.00
2023-02-11T00:40:10.415Z,0.00
2023-02-11T00:44:32.675Z,0.10
2023-02-11T00:48:58.109Z,0.20
2023-02-11T00:53:20.133Z,0.20
2023-02-11T00:57:42.084Z,0.20
2023-02-11T01:02:04.219Z,0.30
2023-02-11T01:06:26.335Z,0.40
2023-02-11T01:11:03.489Z,0.50
2023-02-11T01:15:26.054Z,0.50
2023-02-11T01:19:48.410Z,0.60
2023-02-11T01:24:10.362Z,0.70
2023-02-11T01:28:32.541Z,0.70
2023-02-11T01:32:55.441Z,0.80
2023-02-11T01:37:17.739Z,0.80
2023-02-11T01:41:39.684Z,0.70
2023-02-11T01:46:14.189Z,0.70
2023-02-11T01:50:37.915Z,0.80
2023-02-11T01:55:29.208Z,0.80
2023-02-11T02:00:40.492Z,0.90
2023-02-11T02:05:10.886Z,1.00
2023-02-11T02:09:42.110Z,1.00
2023-02-11T02:14:04.538Z,1.10
2023-02-11T02:18:41.742Z,1.00
2023-02-11T02:23:25.239Z,0.90
2023-02-11T02:28:05.062Z,0.80
2023-02-11T02:32:51.953Z,0.90
2023-02-11T02:37:41.978Z,1.20
2023-02-11T02:42:05.895Z,1.40
2023-02-11T02:46:33.781Z,1.60
2023-02-11T02:51:26.237Z,1.60
2023-02-11T02:56:10.577Z,1.70
2023-02-11T03:01:03.928Z,1.80
2023-02-11T03:06:11.978Z,1.90
2023-02-11T03:10:42.803Z,1.90
2023-02-11T03:15:08.620Z,2.00
2023-02-11T03:19:42.757Z,2.00
2023-02-11T03:24:13.602Z,2.00
2023-02-11T03:29:23.197Z,2.10
2023-02-11T03:34:14.615Z,2.10
2023-02-11T03:38:50.168Z,2.20
2023-02-11T03:43:17.999Z,2.30
2023-02-11T03:47:47.323Z,2.30
2023-02-11T03:52:11.545Z,2.40
2023-02-11T03:56:42.322Z,2.30
2023-02-11T04:01:05.403Z,2.30
2023-02-11T04:05:27.329Z,2.40
2023-02-11T04:09:49.518Z,2.40
2023-02-11T04:14:11.317Z,2.40
2023-02-11T04:18:33.658Z,2.50
2023-02-11T04:22:55.583Z,2.50
2023-02-11T04:27:17.378Z,2.50
2023-02-11T04:31:39.377Z,2.40
2023-02-11T04:36:01.643Z,2.40
2023-02-11T04:40:23.738Z,2.30
2023-02-11T04:44:45.688Z,2.30
2023-02-11T04:49:07.817Z,2.40
2023-02-11T04:53:29.921Z,2.40
2023-02-11T04:57:51.980Z,2.40
2023-02-11T05:02:14.180Z,2.50
2023-02-11T05:06:38.022Z,2.50
2023-02-11T05:11:02.291Z,2.50
2023-02-11T05:15:24.246Z,2.50
2023-02-11T05:19:46.362Z,2.50
2023-02-11T05:24:08.801Z,2.50
2023-02-11T05:28:32.436Z,2.60
2023-02-11T05:32:55.066Z,2.60
2023-02-11T05:37:18.211Z,2.60
2023-02-11T05:41:40.289Z,2.60
2023-02-11T05:46:04.386Z,2.60
2023-02-11T05:50:26.860Z,2.60
2023-02-11T05:54:48.723Z,2.60
2023-02-11T05:59:12.220Z,2.60
2023-02-11T06:03:34.180Z,2.70
2023-02-11T06:07:56.449Z,2.70
2023-02-11T06:12:18.301Z,2.70
2023-02-11T06:16:40.580Z,2.70
2023-02-11T06:21:07.387Z,2.70
2023-02-11T06:25:29.547Z,2.70
2023-02-11T06:29:53.243Z,2.70
2023-02-11T06:34:15.625Z,2.80
2023-02-11T06:38:38.319Z,2.70
2023-02-11T06:43:00.593Z,2.80
2023-02-11T06:47:22.579Z,2.80
2023-02-11T06:51:44.529Z,2.80
2023-02-11T06:56:10.301Z,2.80
2023-02-11T07:00:32.532Z,2.80
2023-02-11T07:04:54.310Z,2.80
2023-02-11T07:09:16.572Z,2.90
2023-02-11T07:13:38.547Z,2.90
2023-02-11T07:18:00.425Z,2.90
2023-02-11T07:22:22.670Z,3.00
2023-02-11T07:26:45.041Z,3.10
2023-02-11T07:31:12.539Z,3.10
2023-02-11T07:35:34.321Z,3.10
2023-02-11T07:39:56.305Z,3.10
2023-02-11T07:44:18.928Z,3.10
2023-02-11T07:48:41.146Z,3.10
2023-02-11T07:53:03.345Z,3.20
2023-02-11T07:57:25.350Z,3.30
2023-02-11T08:01:47.328Z,3.40
2023-02-11T08:06:13.643Z,3.40
2023-02-11T08:10:35.709Z,3.50
2023-02-11T08:14:57.625Z,3.50
2023-02-11T08:19:19.745Z,3.50
2023-02-11T08:23:43.928Z,3.40
2023-02-11T08:28:06.123Z,3.40
2023-02-11T08:32:28.087Z,3.40
2023-02-11T08:36:50.398Z,3.40
2023-02-11T08:41:15.078Z,3.30
2023-02-11T08:45:38.214Z,3.40
2023-02-11T08:50:00.047Z,3.50
2023-02-11T08:54:22.069Z,3.50
2023-02-11T08:58:45.173Z,3.60
2023-02-11T09:03:07.359Z,3.60
2023-02-11T09:07:29.431Z,3.70
2023-02-11T09:11:51.163Z,4.00
2023-02-11T09:16:23.264Z,4.30
2023-02-11T09:20:45.380Z,4.30
2023-02-11T09:25:07.807Z,4.40
2023-02-11T09:29:29.800Z,4.40
2023-02-11T09:33:57.343Z,4.50
2023-02-11T09:38:19.542Z,4.40
2023-02-11T09:42:48.210Z,4.40
2023-02-11T09:47:36.291Z,4.20
2023-02-11T09:52:13.969Z,4.20
2023-02-11T09:56:36.732Z,4.20
2023-02-11T10:01:22.060Z,4.10
2023-02-11T10:06:08.146Z,4.10
2023-02-11T10:10:44.968Z,4.30
2023-02-11T10:15:29.765Z,4.40
2023-02-11T10:20:03.607Z,4.60
2023-02-11T10:24:28.936Z,4.70
2023-02-11T10:28:54.700Z,4.80
2023-02-11T10:34:26.108Z,4.80
2023-02-11T10:38:47.802Z,4.70
2023-02-11T10:43:17.449Z,4.60
2023-02-11T10:47:41.746Z,4.70
2023-02-11T10:52:25.763Z,4.80
2023-02-11T10:56:58.613Z,4.90
2023-02-11T11:01:24.613Z,5.10
2023-02-11T11:05:58.779Z,5.40
2023-02-11T11:10:49.915Z,5.60
2023-02-11T11:15:19.069Z,5.70
2023-02-11T11:19:41.340Z,5.50
2023-02-11T11:24:04.559Z,5.40
2023-02-11T11:28:29.903Z,5.50
2023-02-11T11:32:52.094Z,5.40
2023-02-11T11:37:34.680Z,5.30
2023-02-11T11:42:03.503Z,5.30
2023-02-11T11:46:40.869Z,5.20
2023-02-11T11:51:12.496Z,5.20
2023-02-11T11:55:54.705Z,5.30
2023-02-11T12:00:51.617Z,5.60
2023-02-11T12:05:37.664Z,5.50
2023-02-11T12:10:14.687Z,5.50
2023-02-11T12:15:11.975Z,5.50
2023-02-11T12:20:18.249Z,5.40
2023-02-11T12:25:36.175Z,5.30
2023-02-11T12:30:04.011Z,5.10
2023-02-11T12:34:50.044Z,5.20
2023-02-11T12:39:37.626Z,5.20
2023-02-11T12:44:00.911Z,5.30
2023-02-11T12:49:04.981Z,5.20
2023-02-11T12:53:37.063Z,5.20
2023-02-11T12:58:01.096Z,5.20
2023-02-11T13:02:44.829Z,5.10
2023-02-11T13:07:23.446Z,5.10
2023-02-11T13:11:54.728Z,5.00
2023-02-11T13:16:39.566Z,5.00
2023-02-11T13:21:56.785Z,5.00
2023-02-11T13:26:45.594Z,5.00
2023-02-11T13:31:09.877Z,5.00
2023-02-11T13:35:38.200Z,5.00
2023-02-11T13:40:27.234Z,5.00
2023-02-11T13:44:50.262Z,5.00
2023-02-11T13:49:40.794Z,4.90
2023-02-11T13:54:04.583Z,5.00
2023-02-11T13:58:29.317Z,4.90
2023-02-11T14:03:30.003Z,4.90
2023-02-11T14:08:29.225Z,4.90
2023-02-11T14:13:34.289Z,4.90
2023-02-11T14:17:56.618Z,4.90
2023-02-11T14:22:55.418Z,4.90
2023-02-11T14:27:41.168Z,4.90
2023-02-11T14:32:34.206Z,4.90
2023-02-11T14:37:19.546Z,4.80
2023-02-11T14:41:49.013Z,4.80
2023-02-11T14:46:11.315Z,4.80
2023-02-11T14:50:48.451Z,4.80
2023-02-11T14:55:31.168Z,4.80
2023-02-11T15:00:04.534Z,4.70
2023-02-11T15:04:33.927Z,4.70
2023-02-11T15:09:05.270Z,4.60
2023-02-11T15:13:31.456Z,4.60
2023-02-11T15:17:55.447Z,4.60
2023-02-11T15:22:26.484Z,4.60
2023-02-11T15:27:15.706Z,4.50
2023-02-11T15:31:37.791Z,4.60
2023-02-11T15:36:02.490Z,4.60
2023-02-11T15:40:32.461Z,4.60
2023-02-11T15:45:16.118Z,4.50
2023-02-11T15:49:39.910Z,4.50
2023-02-11T15:54:29.689Z,4.50
2023-02-11T15:58:55.807Z,4.50
2023-02-11T16:03:32.735Z,4.60
2023-02-11T16:07:57.036Z,4.50
2023-02-11T16:12:27.343Z,4.50
2023-02-11T16:16:54.166Z,4.50
2023-02-11T16:21:18.831Z,4.60
2023-02-11T16:25:42.868Z,4.60
2023-02-11T16:30:06.232Z,4.60
2023-02-11T16:34:28.843Z,4.60
2023-02-11T16:38:50.724Z,4.50
2023-02-11T16:43:13.166Z,4.50
2023-02-11T16:47:38.916Z,4.50
2023-02-11T16:52:06.035Z,4.50
2023-02-11T16:56:27.927Z,4.50
2023-02-11T17:00:50.273Z,4.50
2023-02-11T17:05:23.329Z,4.50
2023-02-11T17:09:45.574Z,4.40
2023-02-11T17:14:07.472Z,4.30
2023-02-11T17:18:30.103Z,4.10
2023-02-11T17:22:52.392Z,4.00
2023-02-11T17:27:14.420Z,3.90
2023-02-11T17:31:37.079Z,3.80
2023-02-11T17:35:59.164Z,3.80
2023-02-11T17:40:21.963Z,3.80
2023-02-11T17:44:45.146Z,3.70
2023-02-11T17:49:07.391Z,3.70
2023-02-11T17:53:29.219Z,3.70
2023-02-11T17:57:51.066Z,3.60
2023-02-11T18:02:13.732Z,3.60
2023-02-11T18:06:36.101Z,3.70
2023-02-11T18:10:58.003Z,3.70
2023-02-11T18:15:19.921Z,3.60
2023-02-11T18:19:41.805Z,3.60
2023-02-11T18:24:06.943Z,3.60
2023-02-11T18:28:29.230Z,3.60
2023-02-11T18:32:56.372Z,3.60
2023-02-11T18:37:18.224Z,3.60
2023-02-11T18:41:42.437Z,3.60
2023-02-11T18:46:13.752Z,3.60
2023-02-11T18:50:35.890Z,3.70
2023-02-11T18:54:58.042Z,3.70
2023-02-11T18:59:19.848Z,3.70
2023-02-11T19:03:42.786Z,3.70
2023-02-11T19:08:05.229Z,3.70
2023-02-11T19:12:27.104Z,3.70
2023-02-11T19:16:51.748Z,3.80
2023-02-11T19:21:14.096Z,3.80
2023-02-11T19:25:37.318Z,3.80
2023-02-11T19:29:59.410Z,3.80
2023-02-11T19:34:22.447Z,3.80
2023-02-11T19:38:45.504Z,3.80
2023-02-11T19:43:07.484Z,3.90
2023-02-11T19:47:29.631Z,3.80
2023-02-11T19:51:53.724Z,3.80
2023-02-11T19:56:19.177Z,3.90
2023-02-11T20:00:43.163Z,3.80
2023-02-11T20:05:05.676Z,3.80
2023-02-11T20:09:29.204Z,3.90
2023-02-11T20:13:51.765Z,3.90
2023-02-11T20:18:13.875Z,3.90
2023-02-11T20:22:36.020Z,3.90
2023-02-11T20:26:58.210Z,3.90
2023-02-11T20:31:21.417Z,3.90
2023-02-11T20:35:43.439Z,4.00
2023-02-11T20:40:07.504Z,4.00
2023-02-11T20:44:29.445Z,4.20
2023-02-11T20:48:52.732Z,4.20
2023-02-11T20:53:15.481Z,4.20
2023-02-11T20:57:37.441Z,4.20
2023-02-11T21:01:59.655Z,4.30
2023-02-11T21:06:24.202Z,4.30
2023-02-11T21:10:48.100Z,4.30
2023-02-11T21:15:11.503Z,4.40
2023-02-11T21:19:33.484Z,4.40
2023-02-11T21:23:56.424Z,4.40
2023-02-11T21:28:18.235Z,4.40
2023-02-11T21:32:40.168Z,4.50
2023-02-11T21:37:02.466Z,4.50
2023-02-11T21:41:25.091Z,4.60
2023-02-11T21:45:49.586Z,4.60
2023-02-11T21:50:11.987Z,4.60
2023-02-11T21:54:34.087Z,4.60
2023-02-11T21:58:59.205Z,4.70
2023-02-11T22:03:21.060Z,4.70
2023-02-11T22:07:43.149Z,4.70
2023-02-11T22:12:08.969Z,4.80
2023-02-11T22:16:32.130Z,4.70
2023-02-11T22:21:03.450Z,4.70
2023-02-11T22:25:25.489Z,4.80
2023-02-11T22:29:47.846Z,4.80
2023-02-11T22:34:10.848Z,4.80
2023-02-11T22:38:34.383Z,4.80
2023-02-11T22:42:56.246Z,4.80
2023-02-11T22:47:18.400Z,4.80
2023-02-11T22:51:40.942Z,4.80
2023-02-11T22:56:09.317Z,4.80
2023-02-11T23:00:37.883Z,4.80
2023-02-11T23:05:00.040Z,4.90
2023-02-11T23:09:22.000Z,4.90
2023-02-11T23:13:46.520Z,4.90
2023-02-11T23:18:11.681Z,4.90
2023-02-11T23:22:36.841Z,4.90
2023-02-11T23:26:58.979Z,4.90
2023-02-11T23:31:31.126Z,5.00
2023-02-11T23:35:53.287Z,5.00
2023-02-11T23:40:17.042Z,4.90
2023-02-11T23:44:39.685Z,5.00
2023-02-11T23:49:02.379Z,5.00
2023-02-11T23:53:26.887Z,5.00
2023-02-11T23:57:49.448Z,5.00
